createdAt,value
2022-09-25T00:01:25.682Z,16.47
2022-09-25T00:03:53.817Z,28.87
2022-09-25T00:06:24.091Z,94.30
2022-09-25T00:08:52.825Z,26.20
2022-09-25T00:11:25.007Z,25.07
2022-09-25T00:13:53.424Z,13.50
2022-09-25T00:16:23.862Z,13.87
2022-09-25T00:19:10.163Z,13.77
2022-09-25T00:21:38.956Z,12.70
2022-09-25T00:24:09.629Z,13.17
2022-09-25T00:26:40.948Z,12.33
2022-09-25T00:29:10.637Z,12.60
2022-09-25T00:31:38.767Z,12.93
2022-09-25T00:34:07.159Z,12.93
2022-09-25T00:36:35.550Z,12.47
2022-09-25T00:39:03.971Z,11.33
2022-09-25T00:41:32.975Z,11.23
2022-09-25T00:44:04.282Z,11.07
2022-09-25T00:46:35.850Z,145.90
2022-09-25T00:49:06.945Z,258.10
2022-09-25T00:51:41.015Z,206.60
2022-09-25T00:54:14.604Z,50.27
2022-09-25T00:56:46.169Z,61.97
2022-09-25T00:59:20.463Z,49.33
2022-09-25T01:01:49.006Z,43.97
2022-09-25T01:04:18.281Z,33.03
2022-09-25T01:06:46.503Z,92.87
2022-09-25T01:09:14.565Z,82.87
2022-09-25T01:11:42.698Z,63.57
2022-09-25T01:14:12.370Z,75.20
2022-09-25T01:16:48.117Z,112.50
2022-09-25T01:19:32.300Z,121.07
2022-09-25T01:22:11.560Z,110.27
2022-09-25T01:25:04.246Z,71.73
2022-09-25T01:27:40.763Z,145.57
2022-09-25T01:30:13.301Z,133.57
2022-09-25T01:32:52.630Z,70.10
2022-09-25T01:35:31.662Z,56.30
2022-09-25T01:38:06.215Z,46.33
2022-09-25T01:40:38.834Z,43.83
2022-09-25T01:43:11.610Z,54.70
2022-09-25T01:45:45.060Z,46.00
2022-09-25T01:48:17.579Z,38.63
2022-09-25T01:50:51.264Z,26.77
2022-09-25T01:53:24.758Z,20.83
2022-09-25T01:55:58.987Z,16.53
2022-09-25T01:58:31.670Z,15.87
2022-09-25T02:01:07.736Z,10.77
2022-09-25T02:03:44.052Z,12.93
2022-09-25T02:06:16.168Z,25.07
2022-09-25T02:08:49.202Z,32.00
2022-09-25T02:11:17.384Z,51.37
2022-09-25T02:13:49.748Z,84.37
2022-09-25T02:16:23.775Z,38.70
2022-09-25T02:19:14.609Z,22.20
2022-09-25T02:21:50.410Z,9.83
2022-09-25T02:24:25.603Z,16.30
2022-09-25T02:26:54.228Z,14.23
2022-09-25T02:29:23.248Z,26.90
2022-09-25T02:31:57.535Z,16.20
2022-09-25T02:34:25.662Z,19.97
2022-09-25T02:36:53.799Z,13.70
2022-09-25T02:39:24.742Z,20.30
2022-09-25T02:42:10.367Z,25.50
2022-09-25T02:44:52.029Z,41.87
2022-09-25T02:47:33.048Z,28.40
2022-09-25T02:50:12.869Z,10.70
2022-09-25T02:52:50.140Z,25.90
2022-09-25T02:55:25.892Z,20.83
2022-09-25T02:57:58.027Z,14.83
2022-09-25T03:00:27.125Z,11.40
2022-09-25T03:03:00.146Z,12.90
2022-09-25T03:05:28.413Z,14.33
2022-09-25T03:08:14.178Z,13.87
2022-09-25T03:10:46.187Z,12.73
2022-09-25T03:13:15.730Z,12.27
2022-09-25T03:15:46.279Z,13.47
2022-09-25T03:18:16.769Z,11.13
2022-09-25T03:20:44.871Z,11.30
2022-09-25T03:23:12.915Z,13.03
2022-09-25T03:25:44.696Z,20.63
2022-09-25T03:28:16.339Z,16.90
2022-09-25T03:30:45.621Z,19.50
2022-09-25T03:33:16.743Z,21.27
2022-09-25T03:35:44.882Z,21.50
2022-09-25T03:38:12.878Z,13.17
2022-09-25T03:40:41.392Z,16.37
2022-09-25T03:45:36.531Z,22.37
2022-09-25T03:48:04.657Z,21.83
2022-09-25T03:50:34.203Z,10.73
2022-09-25T03:53:02.302Z,11.83
2022-09-25T03:55:30.339Z,11.50
2022-09-25T03:57:58.354Z,12.57
2022-09-25T04:00:26.430Z,16.80
2022-09-25T04:02:54.632Z,19.80
2022-09-25T04:05:22.725Z,13.07
2022-09-25T04:07:52.109Z,11.83
2022-09-25T04:10:20.256Z,16.57
2022-09-25T04:12:48.248Z,20.97
2022-09-25T04:15:16.441Z,13.40
2022-09-25T04:17:44.437Z,10.47
2022-09-25T04:20:12.651Z,14.33
2022-09-25T04:22:40.649Z,11.20
2022-09-25T04:25:11.093Z,16.93
2022-09-25T04:27:39.278Z,9.80
2022-09-25T04:30:08.509Z,11.80
2022-09-25T04:32:53.807Z,11.00
2022-09-25T04:35:21.879Z,14.73
2022-09-25T04:37:49.979Z,7.23
2022-09-25T04:40:19.504Z,14.70
2022-09-25T04:42:47.561Z,11.00
2022-09-25T04:45:16.026Z,9.77
2022-09-25T04:47:44.135Z,11.60
2022-09-25T04:50:12.224Z,12.67
2022-09-25T04:52:40.315Z,10.20
2022-09-25T04:55:08.938Z,10.63
2022-09-25T04:57:57.237Z,11.30
2022-09-25T05:00:29.386Z,18.93
2022-09-25T05:02:58.000Z,16.77
2022-09-25T05:05:28.008Z,13.50
2022-09-25T05:07:57.253Z,12.40
2022-09-25T05:10:27.295Z,21.40
2022-09-25T05:12:58.255Z,13.63
2022-09-25T05:15:27.690Z,16.00
2022-09-25T05:18:01.334Z,11.83
2022-09-25T05:20:29.945Z,9.10
2022-09-25T05:22:59.263Z,11.43
2022-09-25T05:25:28.188Z,11.23
2022-09-25T05:27:59.343Z,11.80
2022-09-25T05:30:29.045Z,11.63
2022-09-25T05:32:59.159Z,9.80
2022-09-25T05:35:28.834Z,10.33
2022-09-25T05:37:56.897Z,11.17
2022-09-25T05:40:25.415Z,10.00
2022-09-25T05:42:55.201Z,10.70
2022-09-25T05:45:24.996Z,10.33
2022-09-25T05:48:02.642Z,10.33
2022-09-25T05:50:32.323Z,10.10
2022-09-25T05:53:01.813Z,10.40
2022-09-25T05:55:30.592Z,9.93
2022-09-25T05:58:01.917Z,10.93
2022-09-25T06:00:32.567Z,10.27
2022-09-25T06:03:01.129Z,9.60
2022-09-25T06:05:29.863Z,9.67
2022-09-25T06:07:57.970Z,9.83
2022-09-25T06:10:27.126Z,9.70
2022-09-25T06:12:59.628Z,10.37
2022-09-25T06:15:28.096Z,9.87
2022-09-25T06:17:57.913Z,8.83
2022-09-25T06:20:26.115Z,10.10
2022-09-25T06:22:54.988Z,9.70
2022-09-25T06:25:23.837Z,9.87
2022-09-25T06:27:54.613Z,9.83
2022-09-25T06:30:23.217Z,10.13
2022-09-25T06:32:59.716Z,10.40
2022-09-25T06:35:29.219Z,10.53
2022-09-25T06:37:59.366Z,9.90
2022-09-25T06:40:29.184Z,10.33
2022-09-25T06:42:57.868Z,11.27
2022-09-25T06:45:26.800Z,10.33
2022-09-25T06:47:57.789Z,11.67
2022-09-25T06:50:31.856Z,10.60
2022-09-25T06:53:00.567Z,10.30
2022-09-25T06:55:29.046Z,11.60
2022-09-25T06:57:57.175Z,11.20
2022-09-25T07:00:25.295Z,11.00
2022-09-25T07:03:10.685Z,10.30
2022-09-25T07:05:40.243Z,10.80
2022-09-25T07:08:08.284Z,11.03
2022-09-25T07:10:36.297Z,10.73
2022-09-25T07:13:04.729Z,13.27
2022-09-25T07:15:32.861Z,11.23
2022-09-25T07:18:00.983Z,11.90
2022-09-25T07:20:29.022Z,12.10
2022-09-25T07:23:03.902Z,12.80
2022-09-25T07:25:32.863Z,13.07
2022-09-25T07:28:01.038Z,12.50
2022-09-25T07:30:29.874Z,13.47
2022-09-25T07:33:00.258Z,9.17
2022-09-25T07:35:28.519Z,11.67
2022-09-25T07:37:57.390Z,12.03
2022-09-25T07:40:27.365Z,11.70
2022-09-25T07:42:59.540Z,11.77
2022-09-25T07:45:27.622Z,12.20
2022-09-25T07:47:57.544Z,11.37
2022-09-25T07:50:25.711Z,9.70
2022-09-25T07:52:54.923Z,12.10
2022-09-25T07:55:23.735Z,10.17
2022-09-25T07:57:57.236Z,12.30
2022-09-25T08:00:25.718Z,12.70
2022-09-25T08:02:58.750Z,13.10
2022-09-25T08:05:27.889Z,13.00
2022-09-25T08:07:56.569Z,13.53
2022-09-25T08:10:24.680Z,14.23
2022-09-25T08:12:54.239Z,14.07
2022-09-25T08:15:22.586Z,14.73
2022-09-25T08:17:50.657Z,12.43
2022-09-25T08:20:19.276Z,13.67
2022-09-25T08:22:47.665Z,20.67
2022-09-25T08:25:15.943Z,16.27
2022-09-25T08:27:43.958Z,17.60
2022-09-25T08:30:13.889Z,16.90
2022-09-25T08:32:42.089Z,16.17
2022-09-25T08:35:10.675Z,16.50
2022-09-25T08:37:41.897Z,11.63
2022-09-25T08:40:19.194Z,14.83
2022-09-25T08:42:50.717Z,16.10
2022-09-25T08:45:45.039Z,16.33
2022-09-25T08:48:39.769Z,17.13
2022-09-25T08:51:09.987Z,16.53
2022-09-25T08:53:40.049Z,16.47
2022-09-25T08:56:18.579Z,13.47
2022-09-25T08:58:52.637Z,10.73
2022-09-25T09:01:25.610Z,14.40
2022-09-25T09:04:02.546Z,16.17
2022-09-25T09:06:32.548Z,15.20
2022-09-25T09:09:16.682Z,13.93
2022-09-25T09:11:49.459Z,15.47
2022-09-25T09:14:20.500Z,17.73
2022-09-25T09:16:56.131Z,16.83
2022-09-25T09:19:24.541Z,12.57
2022-09-25T09:22:00.779Z,13.87
2022-09-25T09:24:39.479Z,18.40
2022-09-25T09:27:24.685Z,17.63
2022-09-25T09:30:05.816Z,18.43
2022-09-25T09:33:00.203Z,20.17
2022-09-25T09:35:40.086Z,21.20
2022-09-25T09:38:19.817Z,21.00
2022-09-25T09:41:12.969Z,20.80
2022-09-25T09:43:57.886Z,20.77
2022-09-25T09:46:35.478Z,14.33
2022-09-25T09:49:12.773Z,18.63
2022-09-25T09:51:44.111Z,15.00
2022-09-25T09:54:17.192Z,21.20
2022-09-25T09:56:49.695Z,20.10
2022-09-25T09:59:20.917Z,18.47
2022-09-25T10:02:00.621Z,19.07
2022-09-25T10:04:35.047Z,20.43
2022-09-25T10:07:07.573Z,19.03
2022-09-25T10:09:37.230Z,19.77
2022-09-25T10:12:09.148Z,18.43
2022-09-25T10:14:40.396Z,19.97
2022-09-25T10:17:11.496Z,18.53
2022-09-25T10:19:48.644Z,17.23
2022-09-25T10:22:20.724Z,12.63
2022-09-25T10:24:52.679Z,17.47
2022-09-25T10:27:33.137Z,17.33
2022-09-25T10:30:15.685Z,16.70
2022-09-25T10:32:46.632Z,16.60
2022-09-25T10:35:21.813Z,15.20
2022-09-25T10:37:52.845Z,12.90
2022-09-25T10:40:28.162Z,16.73
2022-09-25T10:43:05.587Z,13.83
2022-09-25T10:45:36.033Z,11.67
2022-09-25T10:48:42.920Z,14.77
2022-09-25T10:51:16.570Z,16.30
2022-09-25T10:53:45.858Z,18.23
2022-09-25T10:56:18.549Z,16.07
2022-09-25T10:58:50.211Z,16.17
2022-09-25T11:01:18.929Z,15.63
2022-09-25T11:03:53.458Z,15.73
2022-09-25T11:06:26.936Z,17.67
2022-09-25T11:09:07.724Z,16.90
2022-09-25T11:11:37.680Z,15.53
2022-09-25T11:14:08.119Z,15.17
2022-09-25T11:16:47.585Z,15.47
2022-09-25T11:19:21.062Z,16.50
2022-09-25T11:22:00.333Z,16.37
2022-09-25T11:24:37.319Z,15.43
2022-09-25T11:27:13.486Z,17.50
2022-09-25T11:29:50.081Z,16.50
2022-09-25T11:32:25.293Z,16.60
2022-09-25T11:35:07.290Z,14.60
2022-09-25T11:37:45.918Z,15.50
2022-09-25T11:40:48.068Z,13.83
2022-09-25T11:43:20.464Z,12.63
2022-09-25T11:45:54.341Z,10.63
2022-09-25T11:48:29.063Z,14.30
2022-09-25T11:51:06.039Z,11.13
2022-09-25T11:53:43.605Z,12.07
2022-09-25T11:56:22.853Z,8.97
2022-09-25T11:59:08.333Z,13.50
2022-09-25T12:01:41.102Z,8.27
2022-09-25T12:04:27.567Z,13.40
2022-09-25T12:07:18.193Z,8.60
2022-09-25T12:10:12.208Z,12.87
2022-09-25T12:12:45.209Z,14.03
2022-09-25T12:15:22.936Z,11.23
2022-09-25T12:18:00.049Z,11.00
2022-09-25T12:20:35.144Z,9.23
2022-09-25T12:23:15.036Z,11.00
2022-09-25T12:25:59.871Z,24.47
2022-09-25T12:28:40.047Z,11.20
2022-09-25T12:31:17.537Z,11.27
2022-09-25T12:33:52.429Z,9.27
2022-09-25T12:36:25.391Z,8.03
2022-09-25T12:38:58.367Z,8.77
2022-09-25T12:41:33.338Z,8.33
2022-09-25T12:44:06.691Z,9.40
2022-09-25T12:46:43.186Z,9.97
2022-09-25T12:49:15.068Z,11.60
2022-09-25T12:51:46.738Z,13.17
2022-09-25T12:54:26.893Z,9.87
2022-09-25T12:57:01.545Z,11.83
2022-09-25T12:59:36.085Z,9.83
2022-09-25T13:02:12.772Z,10.90
2022-09-25T13:04:55.673Z,10.30
2022-09-25T13:07:40.904Z,11.30
2022-09-25T13:10:22.584Z,12.10
2022-09-25T13:12:56.391Z,12.90
2022-09-25T13:15:27.513Z,12.53
2022-09-25T13:17:56.438Z,11.53
2022-09-25T13:20:49.682Z,11.17
2022-09-25T13:23:27.207Z,12.37
2022-09-25T13:26:00.864Z,11.40
2022-09-25T13:28:34.466Z,10.70
2022-09-25T13:31:09.376Z,11.37
2022-09-25T13:33:48.649Z,10.20
2022-09-25T13:36:40.423Z,10.67
2022-09-25T13:39:37.003Z,9.40
2022-09-25T13:42:07.687Z,8.97
2022-09-25T13:44:59.009Z,13.30
2022-09-25T13:48:07.168Z,11.73
2022-09-25T13:50:38.406Z,13.20
2022-09-25T13:53:50.104Z,13.40
2022-09-25T13:56:26.119Z,13.07
2022-09-25T13:59:38.177Z,12.80
2022-09-25T14:02:39.066Z,14.00
2022-09-25T14:05:08.447Z,12.67
2022-09-25T14:07:37.764Z,13.97
2022-09-25T14:10:12.615Z,15.27
2022-09-25T14:12:45.274Z,16.80
2022-09-25T14:15:27.931Z,13.73
2022-09-25T14:18:00.854Z,13.10
2022-09-25T14:20:36.595Z,14.57
2022-09-25T14:23:12.093Z,14.77
2022-09-25T14:25:44.316Z,15.10
2022-09-25T14:28:20.668Z,16.63
2022-09-25T14:30:57.803Z,16.73
2022-09-25T14:33:45.387Z,16.00
2022-09-25T14:36:23.024Z,15.10
2022-09-25T14:39:23.132Z,15.10
2022-09-25T14:42:06.461Z,18.40
2022-09-25T14:44:54.089Z,15.80
2022-09-25T14:47:23.756Z,15.83
2022-09-25T14:49:55.018Z,15.80
2022-09-25T14:52:26.842Z,16.83
2022-09-25T14:55:00.220Z,15.43
2022-09-25T14:57:31.560Z,16.07
2022-09-25T15:00:03.665Z,15.93
2022-09-25T15:02:35.281Z,15.77
2022-09-25T15:05:26.108Z,15.83
2022-09-25T15:07:55.474Z,15.50
2022-09-25T15:10:29.573Z,14.93
2022-09-25T15:13:09.741Z,14.60
2022-09-25T15:15:39.926Z,15.50
2022-09-25T15:18:13.585Z,13.60
2022-09-25T15:20:50.224Z,14.97
2022-09-25T15:23:21.384Z,15.43
2022-09-25T15:25:52.365Z,14.20
2022-09-25T15:28:23.180Z,16.30
2022-09-25T15:30:57.660Z,15.80
2022-09-25T15:33:29.240Z,15.30
2022-09-25T15:36:01.555Z,15.50
2022-09-25T15:38:30.837Z,15.53
2022-09-25T15:40:59.633Z,14.20
2022-09-25T15:43:29.967Z,15.00
2022-09-25T15:45:59.701Z,16.07
2022-09-25T15:48:32.773Z,15.10
2022-09-25T15:51:04.883Z,14.80
2022-09-25T15:53:36.162Z,15.97
2022-09-25T15:56:18.432Z,14.83
2022-09-25T15:58:51.124Z,13.87
2022-09-25T16:01:41.048Z,15.83
2022-09-25T16:04:28.893Z,16.50
2022-09-25T16:06:58.519Z,15.73
2022-09-25T16:09:31.889Z,15.17
2022-09-25T16:12:20.622Z,15.93
2022-09-25T16:14:49.626Z,16.33
2022-09-25T16:17:24.655Z,16.50
2022-09-25T16:20:07.991Z,17.63
2022-09-25T16:22:42.783Z,17.33
2022-09-25T16:25:22.023Z,17.40
2022-09-25T16:27:50.381Z,17.83
2022-09-25T16:30:22.284Z,17.07
2022-09-25T16:32:54.662Z,15.70
2022-09-25T16:35:56.878Z,14.93
2022-09-25T16:38:31.829Z,15.37
2022-09-25T16:41:05.229Z,15.97
2022-09-25T16:43:36.104Z,16.43
2022-09-25T16:46:13.968Z,15.57
2022-09-25T16:48:43.314Z,15.80
2022-09-25T16:51:21.398Z,15.87
2022-09-25T16:53:52.303Z,16.07
2022-09-25T16:56:22.773Z,15.33
2022-09-25T16:58:51.017Z,17.73
2022-09-25T17:01:19.366Z,16.60
2022-09-25T17:03:51.099Z,17.13
2022-09-25T17:06:19.647Z,17.10
2022-09-25T17:08:48.309Z,17.30
2022-09-25T17:11:19.259Z,17.73
2022-09-25T17:13:48.416Z,18.50
2022-09-25T17:16:16.543Z,16.90
2022-09-25T17:18:44.724Z,16.97
2022-09-25T17:21:15.305Z,19.67
2022-09-25T17:23:43.993Z,19.13
2022-09-25T17:26:19.076Z,19.57
2022-09-25T17:28:47.230Z,18.53
2022-09-25T17:31:18.912Z,22.17
2022-09-25T17:33:49.816Z,18.83
2022-09-25T17:36:18.065Z,19.97
2022-09-25T17:38:46.279Z,19.80
2022-09-25T17:41:20.812Z,19.27
2022-09-25T17:43:49.343Z,20.20
2022-09-25T17:46:19.161Z,19.00
2022-09-25T17:48:53.214Z,19.47
2022-09-25T17:51:24.828Z,21.10
2022-09-25T17:53:53.939Z,22.50
2022-09-25T17:56:24.410Z,20.60
2022-09-25T17:58:57.391Z,22.63
2022-09-25T18:01:28.291Z,22.67
2022-09-25T18:03:59.659Z,21.93
2022-09-25T18:06:30.580Z,23.10
2022-09-25T18:08:58.588Z,21.93
2022-09-25T18:11:28.399Z,21.63
2022-09-25T18:14:01.131Z,23.87
2022-09-25T18:16:32.037Z,22.50
2022-09-25T18:19:17.852Z,23.67
2022-09-25T18:22:03.319Z,20.53
2022-09-25T18:24:31.460Z,22.37
2022-09-25T18:27:00.964Z,23.30
2022-09-25T18:29:29.046Z,22.50
2022-09-25T18:31:57.193Z,23.70
2022-09-25T18:34:26.593Z,24.00
2022-09-25T18:36:55.033Z,24.50
2022-09-25T18:39:23.383Z,21.30
2022-09-25T18:41:51.658Z,23.73
2022-09-25T18:44:23.440Z,29.33
2022-09-25T18:46:53.000Z,55.80
2022-09-25T18:49:21.172Z,27.70
2022-09-25T18:51:49.290Z,24.77
2022-09-25T18:54:17.485Z,24.33
2022-09-25T18:56:45.865Z,24.43
2022-09-25T18:59:14.396Z,23.40
2022-09-25T19:01:44.072Z,26.27
2022-09-25T19:04:17.039Z,24.07
2022-09-25T19:06:45.981Z,26.67
2022-09-25T19:09:16.972Z,24.17
2022-09-25T19:11:45.960Z,24.73
2022-09-25T19:14:14.893Z,25.50
2022-09-25T19:16:46.207Z,24.17
2022-09-25T19:19:14.917Z,25.77
2022-09-25T19:21:44.671Z,23.83
2022-09-25T19:24:13.616Z,23.80
2022-09-25T19:26:42.754Z,22.93
2022-09-25T19:29:11.291Z,21.70
2022-09-25T19:31:39.492Z,23.10
2022-09-25T19:34:09.337Z,21.63
2022-09-25T19:36:38.595Z,20.83
2022-09-25T19:39:06.800Z,20.33
2022-09-25T19:41:37.985Z,20.97
2022-09-25T19:44:13.376Z,23.03
2022-09-25T19:46:42.022Z,21.73
2022-09-25T19:49:12.206Z,21.33
2022-09-25T19:51:41.158Z,20.63
2022-09-25T19:54:11.753Z,19.40
2022-09-25T19:56:42.220Z,19.60
2022-09-25T19:59:13.646Z,20.83
2022-09-25T20:01:42.845Z,19.07
2022-09-25T20:04:18.292Z,19.10
2022-09-25T20:06:47.691Z,17.57
2022-09-25T20:09:15.882Z,18.47
2022-09-25T20:11:43.982Z,18.33
2022-09-25T20:14:13.094Z,17.40
2022-09-25T20:16:41.259Z,16.47
2022-09-25T20:19:09.701Z,16.03
2022-09-25T20:21:41.345Z,16.20
2022-09-25T20:24:10.107Z,17.07
2022-09-25T20:26:38.567Z,16.47
2022-09-25T20:29:10.360Z,15.33
2022-09-25T20:31:39.940Z,16.67
2022-09-25T20:34:08.689Z,15.30
2022-09-25T20:36:39.173Z,14.30
2022-09-25T20:39:07.912Z,14.80
2022-09-25T20:41:36.504Z,15.27
2022-09-25T20:44:05.286Z,15.13
2022-09-25T20:46:34.160Z,14.47
2022-09-25T20:49:03.544Z,15.37
2022-09-25T20:51:34.882Z,13.40
2022-09-25T20:54:06.912Z,12.73
2022-09-25T20:56:36.092Z,13.70
2022-09-25T20:59:05.578Z,11.87
2022-09-25T21:01:36.482Z,11.10
2022-09-25T21:04:07.902Z,10.90
2022-09-25T21:06:38.139Z,11.00
2022-09-25T21:09:09.824Z,9.47
2022-09-25T21:11:40.314Z,10.23
2022-09-25T21:14:11.816Z,9.30
2022-09-25T21:16:39.986Z,10.53
2022-09-25T21:19:08.189Z,9.27
2022-09-25T21:21:36.571Z,9.57
2022-09-25T21:24:04.955Z,9.37
2022-09-25T21:26:34.723Z,9.33
2022-09-25T21:29:05.800Z,10.33
2022-09-25T21:31:37.569Z,9.83
2022-09-25T21:34:06.706Z,9.13
2022-09-25T21:36:35.299Z,10.10
2022-09-25T21:39:04.444Z,9.10
2022-09-25T21:41:34.830Z,9.13
2022-09-25T21:44:05.515Z,8.70
2022-09-25T21:46:34.833Z,9.57
2022-09-25T21:49:05.870Z,9.67
2022-09-25T21:51:35.614Z,9.40
2022-09-25T21:54:03.671Z,10.13
2022-09-25T21:56:34.289Z,10.00
2022-09-25T21:59:08.255Z,9.57
2022-09-25T22:01:39.402Z,9.27
2022-09-25T22:04:08.728Z,9.83
2022-09-25T22:06:38.907Z,10.43
2022-09-25T22:09:09.520Z,11.87
2022-09-25T22:11:40.022Z,9.43
2022-09-25T22:14:13.330Z,9.93
2022-09-25T22:16:45.235Z,9.60
2022-09-25T22:19:16.056Z,9.50
2022-09-25T22:21:45.297Z,9.47
2022-09-25T22:24:13.472Z,9.27
2022-09-25T22:26:46.339Z,9.50
2022-09-25T22:29:15.022Z,9.13
2022-09-25T22:31:44.232Z,9.27
2022-09-25T22:34:18.901Z,9.03
2022-09-25T22:36:47.715Z,9.20
2022-09-25T22:39:18.174Z,8.30
2022-09-25T22:41:50.840Z,9.40
2022-09-25T22:44:19.302Z,8.23
2022-09-25T22:46:47.474Z,9.40
2022-09-25T22:49:15.514Z,8.53
2022-09-25T22:51:43.623Z,7.40
2022-09-25T22:54:13.722Z,7.63
2022-09-25T22:56:42.435Z,7.77
2022-09-25T22:59:14.487Z,7.90
2022-09-25T23:01:46.683Z,7.80
2022-09-25T23:04:17.190Z,7.70
2022-09-25T23:06:45.277Z,7.60
2022-09-25T23:09:15.335Z,8.70
2022-09-25T23:11:43.842Z,6.67
2022-09-25T23:14:16.958Z,8.70
2022-09-25T23:16:45.853Z,8.20
2022-09-25T23:19:14.900Z,8.13
2022-09-25T23:21:43.480Z,7.73
2022-09-25T23:24:13.323Z,8.47
2022-09-25T23:26:41.632Z,8.00
2022-09-25T23:29:12.133Z,7.70
2022-09-25T23:31:42.219Z,12.90
2022-09-25T23:34:10.394Z,7.40
2022-09-25T23:36:39.106Z,8.30
2022-09-25T23:39:09.442Z,7.80
2022-09-25T23:41:39.813Z,7.47
2022-09-25T23:44:09.939Z,7.00
2022-09-25T23:46:41.593Z,7.40
2022-09-25T23:49:10.477Z,7.47
2022-09-25T23:51:38.988Z,7.03
2022-09-25T23:54:07.319Z,7.50
2022-09-25T23:56:36.489Z,6.77
2022-09-25T23:59:05.703Z,6.10
